sensor_id;sensor_type;location;lat;lon;timestamp;pressure;altitude;pressure_sealevel;temperature;humidity
27304;BME280;14791;52.392;13.092;2022-08-04T00:01:47;101001.17;;;29.96;32.58
27304;BME280;14791;52.392;13.092;2022-08-04T00:04:26;100998.19;;;29.90;32.69
27304;BME280;14791;52.392;13.092;2022-08-04T00:07:13;100999.37;;;29.85;32.78
27304;BME280;14791;52.392;13.092;2022-08-04T00:09:48;101002.27;;;29.81;33.07
27304;BME280;14791;52.392;13.092;2022-08-04T00:12:18;101000.99;;;29.77;33.13
27304;BME280;14791;52.392;13.092;2022-08-04T00:14:50;101000.56;;;29.74;32.94
27304;BME280;14791;52.392;13.092;2022-08-04T00:17:23;101002.47;;;29.73;33.06
27304;BME280;14791;52.392;13.092;2022-08-04T00:19:55;101001.64;;;29.73;33.01
27304;BME280;14791;52.392;13.092;2022-08-04T00:22:27;100999.95;;;29.72;32.97
27304;BME280;14791;52.392;13.092;2022-08-04T00:24:59;100998.78;;;29.70;33.03
27304;BME280;14791;52.392;13.092;2022-08-04T00:27:29;101001.53;;;29.70;33.00
27304;BME280;14791;52.392;13.092;2022-08-04T00:29:58;100997.11;;;29.69;33.01
27304;BME280;14791;52.392;13.092;2022-08-04T00:32:27;101000.59;;;29.67;33.04
27304;BME280;14791;52.392;13.092;2022-08-04T00:35:00;100995.80;;;29.65;33.14
27304;BME280;14791;52.392;13.092;2022-08-04T00:37:30;100994.86;;;29.62;33.20
27304;BME280;14791;52.392;13.092;2022-08-04T00:40:00;100998.02;;;29.59;33.40
27304;BME280;14791;52.392;13.092;2022-08-04T00:42:33;100997.38;;;29.57;33.39
27304;BME280;14791;52.392;13.092;2022-08-04T00:48:06;100994.42;;;29.52;33.58
27304;BME280;14791;52.392;13.092;2022-08-04T00:50:44;100990.84;;;29.44;33.72
27304;BME280;14791;52.392;13.092;2022-08-04T00:53:26;100997.20;;;29.38;33.80
27304;BME280;14791;52.392;13.092;2022-08-04T00:58:48;100993.81;;;29.30;33.88
27304;BME280;14791;52.392;13.092;2022-08-04T01:04:15;100995.52;;;29.24;34.07
27304;BME280;14791;52.392;13.092;2022-08-04T01:09:40;101001.76;;;29.22;33.97
27304;BME280;14791;52.392;13.092;2022-08-04T01:15:06;100985.25;;;29.22;34.05
27304;BME280;14791;52.392;13.092;2022-08-04T01:17:55;100992.66;;;29.21;34.17
27304;BME280;14791;52.392;13.092;2022-08-04T01:20:25;100990.42;;;29.21;34.22
27304;BME280;14791;52.392;13.092;2022-08-04T01:31:25;100990.11;;;29.13;34.55
27304;BME280;14791;52.392;13.092;2022-08-04T01:33:53;100988.73;;;29.13;34.68
27304;BME280;14791;52.392;13.092;2022-08-04T01:36:24;100993.39;;;29.13;34.60
27304;BME280;14791;52.392;13.092;2022-08-04T01:38:53;100993.39;;;29.13;34.60
27304;BME280;14791;52.392;13.092;2022-08-04T01:41:24;100988.53;;;29.15;34.76
27304;BME280;14791;52.392;13.092;2022-08-04T01:43:54;100992.96;;;29.16;34.68
27304;BME280;14791;52.392;13.092;2022-08-04T01:46:25;100989.17;;;29.17;34.78
27304;BME280;14791;52.392;13.092;2022-08-04T01:48:56;100996.05;;;29.17;34.87
27304;BME280;14791;52.392;13.092;2022-08-04T01:51:26;101002.92;;;29.17;34.75
27304;BME280;14791;52.392;13.092;2022-08-04T01:53:56;100991.59;;;29.16;34.91
27304;BME280;14791;52.392;13.092;2022-08-04T01:56:27;100990.64;;;29.13;34.85
27304;BME280;14791;52.392;13.092;2022-08-04T01:58:57;100989.27;;;29.13;34.89
27304;BME280;14791;52.392;13.092;2022-08-04T02:01:27;100992.22;;;29.11;34.96
27304;BME280;14791;52.392;13.092;2022-08-04T02:03:56;100988.83;;;29.09;35.06
27304;BME280;14791;52.392;13.092;2022-08-04T02:07:02;100985.97;;;29.07;35.07
27304;BME280;14791;52.392;13.092;2022-08-04T02:09:51;100988.08;;;29.04;35.12
27304;BME280;14791;52.392;13.092;2022-08-04T02:12:26;100984.57;;;28.93;35.15
27304;BME280;14791;52.392;13.092;2022-08-04T02:15:13;100985.63;;;28.86;35.23
27304;BME280;14791;52.392;13.092;2022-08-04T02:18:06;100986.98;;;28.79;35.30
27304;BME280;14791;52.392;13.092;2022-08-04T02:20:42;100983.38;;;28.72;35.38
27304;BME280;14791;52.392;13.092;2022-08-04T02:23:15;100985.45;;;28.63;35.46
27304;BME280;14791;52.392;13.092;2022-08-04T02:25:46;100977.83;;;28.58;35.68
27304;BME280;14791;52.392;13.092;2022-08-04T02:34:08;100971.64;;;28.43;35.81
27304;BME280;14791;52.392;13.092;2022-08-04T02:36:39;100973.18;;;28.35;36.02
27304;BME280;14791;52.392;13.092;2022-08-04T02:39:10;100973.61;;;28.32;36.02
27304;BME280;14791;52.392;13.092;2022-08-04T02:41:40;100968.64;;;28.31;36.09
27304;BME280;14791;52.392;13.092;2022-08-04T02:44:09;100968.84;;;28.30;36.16
27304;BME280;14791;52.392;13.092;2022-08-04T02:46:40;100967.16;;;28.29;36.15
27304;BME280;14791;52.392;13.092;2022-08-04T02:49:10;100961.33;;;28.28;36.23
27304;BME280;14791;52.392;13.092;2022-08-04T02:51:49;100954.88;;;28.25;36.27
27304;BME280;14791;52.392;13.092;2022-08-04T02:54:15;100961.21;;;28.25;36.27
27304;BME280;14791;52.392;13.092;2022-08-04T02:56:45;100960.45;;;28.20;36.42
27304;BME280;14791;52.392;13.092;2022-08-04T02:59:19;100957.41;;;28.19;36.40
27304;BME280;14791;52.392;13.092;2022-08-04T03:01:47;100961.41;;;28.17;36.45
27304;BME280;14791;52.392;13.092;2022-08-04T03:05:02;100962.67;;;28.14;36.48
27304;BME280;14791;52.392;13.092;2022-08-04T03:30:09;100959.93;;;27.62;37.22
27304;BME280;14791;52.392;13.092;2022-08-04T03:35:35;100964.22;;;27.54;37.47
27304;BME280;14791;52.392;13.092;2022-08-04T03:43:36;100965.66;;;27.50;37.63
27304;BME280;14791;52.392;13.092;2022-08-04T03:46:32;100966.06;;;27.47;37.66
27304;BME280;14791;52.392;13.092;2022-08-04T03:52:10;100967.50;;;27.43;37.75
27304;BME280;14791;52.392;13.092;2022-08-04T04:00:20;100968.05;;;27.31;37.97
27304;BME280;14791;52.392;13.092;2022-08-04T04:05:40;100966.61;;;27.35;38.09
27304;BME280;14791;52.392;13.092;2022-08-04T04:08:28;100963.55;;;27.34;38.00
27304;BME280;14791;52.392;13.092;2022-08-04T04:22:40;100973.94;;;27.28;38.00
27304;BME280;14791;52.392;13.092;2022-08-04T04:25:18;100974.77;;;27.29;38.03
27304;BME280;14791;52.392;13.092;2022-08-04T04:28:02;100968.64;;;27.27;38.04
27304;BME280;14791;52.392;13.092;2022-08-04T04:30:34;100972.56;;;27.28;37.97
27304;BME280;14791;52.392;13.092;2022-08-04T04:42:24;100969.83;;;27.28;38.00
27304;BME280;14791;52.392;13.092;2022-08-04T04:45:23;100974.90;;;27.31;38.10
27304;BME280;14791;52.392;13.092;2022-08-04T04:53:57;100975.43;;;27.31;38.44
27304;BME280;14791;52.392;13.092;2022-08-04T04:56:50;100971.44;;;27.33;38.52
27304;BME280;14791;52.392;13.092;2022-08-04T04:59:18;100969.04;;;27.34;38.54
27304;BME280;14791;52.392;13.092;2022-08-04T05:16:45;100974.48;;;27.63;38.33
27304;BME280;14791;52.392;13.092;2022-08-04T05:18:30;100972.92;;;27.64;38.36
27304;BME280;14791;52.392;13.092;2022-08-04T05:23:47;100979.66;;;27.79;38.28
27304;BME280;14791;52.392;13.092;2022-08-04T05:26:18;100976.99;;;27.86;38.17
27304;BME280;14791;52.392;13.092;2022-08-04T05:28:56;100977.16;;;27.95;37.97
27304;BME280;14791;52.392;13.092;2022-08-04T05:31:30;100983.11;;;28.05;37.73
27304;BME280;14791;52.392;13.092;2022-08-04T05:34:04;100983.80;;;28.14;37.18
27304;BME280;14791;52.392;13.092;2022-08-04T05:36:41;100978.84;;;28.20;37.13
27304;BME280;14791;52.392;13.092;2022-08-04T05:39:16;100983.64;;;28.29;36.99
27304;BME280;14791;52.392;13.092;2022-08-04T05:41:45;100981.42;;;28.35;36.74
27304;BME280;14791;52.392;13.092;2022-08-04T05:44:16;100980.92;;;28.42;36.68
27304;BME280;14791;52.392;13.092;2022-08-04T05:46:48;100981.31;;;28.50;36.62
27304;BME280;14791;52.392;13.092;2022-08-04T05:49:19;100983.02;;;28.57;36.50
27304;BME280;14791;52.392;13.092;2022-08-04T05:51:49;100984.73;;;28.65;36.42
27304;BME280;14791;52.392;13.092;2022-08-04T05:54:19;100984.21;;;28.72;36.27
27304;BME280;14791;52.392;13.092;2022-08-04T05:56:50;100984.54;;;28.80;36.15
27304;BME280;14791;52.392;13.092;2022-08-04T05:59:19;100982.34;;;28.86;36.04
27304;BME280;14791;52.392;13.092;2022-08-04T06:01:55;100985.41;;;28.94;35.76
27304;BME280;14791;52.392;13.092;2022-08-04T06:04:40;100976.00;;;28.99;35.46
27304;BME280;14791;52.392;13.092;2022-08-04T06:07:08;100978.12;;;29.03;35.23
27304;BME280;14791;52.392;13.092;2022-08-04T06:09:38;100986.31;;;29.08;35.07
27304;BME280;14791;52.392;13.092;2022-08-04T06:12:17;100983.23;;;29.13;34.80
27304;BME280;14791;52.392;13.092;2022-08-04T06:14:48;100982.94;;;29.19;34.92
27304;BME280;14791;52.392;13.092;2022-08-04T06:17:29;100979.02;;;29.24;34.65
27304;BME280;14791;52.392;13.092;2022-08-04T06:19:55;100978.69;;;29.30;34.38
27304;BME280;14791;52.392;13.092;2022-08-04T06:22:25;100987.78;;;29.37;34.33
27304;BME280;14791;52.392;13.092;2022-08-04T06:24:56;100986.71;;;29.44;34.25
27304;BME280;14791;52.392;13.092;2022-08-04T06:27:26;100987.25;;;29.51;34.08
27304;BME280;14791;52.392;13.092;2022-08-04T06:29:57;100991.14;;;29.59;33.97
27304;BME280;14791;52.392;13.092;2022-08-04T06:32:28;100987.00;;;29.65;33.87
27304;BME280;14791;52.392;13.092;2022-08-04T06:35:04;100987.33;;;29.73;33.70
27304;BME280;14791;52.392;13.092;2022-08-04T06:37:36;100990.62;;;29.79;33.61
27304;BME280;14791;52.392;13.092;2022-08-04T06:40:07;100986.58;;;29.88;33.55
27304;BME280;14791;52.392;13.092;2022-08-04T06:42:38;100982.94;;;29.95;33.34
27304;BME280;14791;52.392;13.092;2022-08-04T06:45:09;100994.03;;;30.04;33.39
27304;BME280;14791;52.392;13.092;2022-08-04T06:47:40;100988.27;;;30.12;33.34
27304;BME280;14791;52.392;13.092;2022-08-04T06:50:10;100987.20;;;30.20;33.23
27304;BME280;14791;52.392;13.092;2022-08-04T06:52:40;100988.89;;;30.27;33.03
27304;BME280;14791;52.392;13.092;2022-08-04T06:55:09;100990.55;;;30.35;32.92
27304;BME280;14791;52.392;13.092;2022-08-04T06:57:40;100985.31;;;30.43;32.90
27304;BME280;14791;52.392;13.092;2022-08-04T07:00:11;100984.44;;;30.49;32.75
27304;BME280;14791;52.392;13.092;2022-08-04T07:02:52;100987.55;;;30.59;32.81
27304;BME280;14791;52.392;13.092;2022-08-04T07:05:22;100982.02;;;30.66;32.76
27304;BME280;14791;52.392;13.092;2022-08-04T07:07:51;100979.42;;;30.71;32.76
27304;BME280;14791;52.392;13.092;2022-08-04T07:10:21;100974.80;;;30.81;32.66
27304;BME280;14791;52.392;13.092;2022-08-04T07:12:51;100974.25;;;30.88;32.55
27304;BME280;14791;52.392;13.092;2022-08-04T07:15:21;100981.19;;;30.97;32.54
27304;BME280;14791;52.392;13.092;2022-08-04T07:17:51;100976.47;;;31.04;32.48
27304;BME280;14791;52.392;13.092;2022-08-04T07:20:21;100980.31;;;31.12;32.32
27304;BME280;14791;52.392;13.092;2022-08-04T07:22:50;100980.34;;;31.22;32.27
27304;BME280;14791;52.392;13.092;2022-08-04T07:25:20;100980.38;;;31.31;32.16
27304;BME280;14791;52.392;13.092;2022-08-04T07:27:49;100981.16;;;31.38;32.01
27304;BME280;14791;52.392;13.092;2022-08-04T07:30:18;100974.02;;;31.46;32.01
27304;BME280;14791;52.392;13.092;2022-08-04T07:32:48;100975.09;;;31.54;31.92
27304;BME280;14791;52.392;13.092;2022-08-04T07:35:18;100971.73;;;31.62;31.86
27304;BME280;14791;52.392;13.092;2022-08-04T07:37:48;100976.94;;;31.70;31.99
27304;BME280;14791;52.392;13.092;2022-08-04T07:40:18;100971.69;;;31.77;31.91
27304;BME280;14791;52.392;13.092;2022-08-04T07:42:47;100979.65;;;31.86;31.83
27304;BME280;14791;52.392;13.092;2022-08-04T07:45:18;100966.06;;;31.93;31.63
27304;BME280;14791;52.392;13.092;2022-08-04T07:47:48;100972.16;;;32.02;31.57
27304;BME280;14791;52.392;13.092;2022-08-04T07:50:18;100975.69;;;32.09;31.47
27304;BME280;14791;52.392;13.092;2022-08-04T07:52:47;100972.05;;;32.18;31.28
27304;BME280;14791;52.392;13.092;2022-08-04T07:55:18;100967.89;;;32.27;31.16
27304;BME280;14791;52.392;13.092;2022-08-04T07:57:47;100969.81;;;32.36;31.07
27304;BME280;14791;52.392;13.092;2022-08-04T08:00:16;100967.58;;;32.45;31.10
27304;BME280;14791;52.392;13.092;2022-08-04T08:02:49;100962.64;;;32.56;30.95
27304;BME280;14791;52.392;13.092;2022-08-04T08:05:19;100960.40;;;32.65;30.74
27304;BME280;14791;52.392;13.092;2022-08-04T08:07:50;100966.45;;;32.73;30.83
27304;BME280;14791;52.392;13.092;2022-08-04T08:10:19;100962.56;;;32.83;30.73
27304;BME280;14791;52.392;13.092;2022-08-04T08:12:49;100966.67;;;32.93;30.69
27304;BME280;14791;52.392;13.092;2022-08-04T08:15:18;100963.32;;;33.02;30.62
27304;BME280;14791;52.392;13.092;2022-08-04T08:17:47;100953.62;;;33.12;30.65
27304;BME280;14791;52.392;13.092;2022-08-04T08:20:16;100958.25;;;33.20;30.58
27304;BME280;14791;52.392;13.092;2022-08-04T08:22:46;100952.37;;;33.29;30.42
27304;BME280;14791;52.392;13.092;2022-08-04T08:25:15;100955.05;;;33.38;30.38
27304;BME280;14791;52.392;13.092;2022-08-04T08:27:44;100955.31;;;33.48;30.42
27304;BME280;14791;52.392;13.092;2022-08-04T08:30:13;100954.19;;;33.58;30.23
27304;BME280;14791;52.392;13.092;2022-08-04T08:32:42;100955.50;;;33.67;30.21
27304;BME280;14791;52.392;13.092;2022-08-04T08:35:11;100948.80;;;33.78;29.99
27304;BME280;14791;52.392;13.092;2022-08-04T08:37:50;100955.70;;;33.89;29.83
27304;BME280;14791;52.392;13.092;2022-08-04T08:46:04;100947.36;;;34.13;29.56
27304;BME280;14791;52.392;13.092;2022-08-04T08:48:39;100951.38;;;34.20;29.48
27304;BME280;14791;52.392;13.092;2022-08-04T09:02:33;100944.22;;;34.52;28.99
27304;BME280;14791;52.392;13.092;2022-08-04T09:10:39;100939.53;;;34.82;28.65
27304;BME280;14791;52.392;13.092;2022-08-04T09:13:21;100938.27;;;34.89;28.52
27304;BME280;14791;52.392;13.092;2022-08-04T09:16:17;100931.49;;;35.00;28.28
27304;BME280;14791;52.392;13.092;2022-08-04T09:19:14;100931.37;;;35.09;28.16
27304;BME280;14791;52.392;13.092;2022-08-04T09:27:42;100934.72;;;35.45;27.52
27304;BME280;14791;52.392;13.092;2022-08-04T09:30:11;100934.02;;;35.54;27.33
27304;BME280;14791;52.392;13.092;2022-08-04T09:35:33;100930.70;;;35.74;26.87
27304;BME280;14791;52.392;13.092;2022-08-04T09:38:32;100928.91;;;35.85;26.67
27304;BME280;14791;52.392;13.092;2022-08-04T09:46:32;100924.59;;;36.16;26.33
27304;BME280;14791;52.392;13.092;2022-08-04T09:49:01;100924.70;;;36.27;26.09
27304;BME280;14791;52.392;13.092;2022-08-04T09:57:35;100917.90;;;36.67;25.09
27304;BME280;14791;52.392;13.092;2022-08-04T09:59:44;100917.71;;;36.76;24.97
27304;BME280;14791;52.392;13.092;2022-08-04T10:02:14;100916.14;;;36.88;24.56
27304;BME280;14791;52.392;13.092;2022-08-04T10:04:44;100914.53;;;36.99;24.53
27304;BME280;14791;52.392;13.092;2022-08-04T10:10:18;100917.78;;;37.21;24.60
27304;BME280;14791;52.392;13.092;2022-08-04T10:18:57;100910.94;;;37.36;24.97
27304;BME280;14791;52.392;13.092;2022-08-04T10:24:09;100902.05;;;37.44;24.51
27304;BME280;14791;52.392;13.092;2022-08-04T10:27:26;100903.77;;;37.51;24.42
27304;BME280;14791;52.392;13.092;2022-08-04T10:29:20;100902.19;;;37.60;24.21
27304;BME280;14791;52.392;13.092;2022-08-04T10:31:58;100903.05;;;37.68;24.05
27304;BME280;14791;52.392;13.092;2022-08-04T10:34:31;100904.77;;;37.79;23.98
27304;BME280;14791;52.392;13.092;2022-08-04T10:37:05;100906.20;;;37.89;23.93
27304;BME280;14791;52.392;13.092;2022-08-04T10:39:58;100903.20;;;38.01;23.89
27304;BME280;14791;52.392;13.092;2022-08-04T10:42:49;100898.78;;;38.13;23.81
27304;BME280;14791;52.392;13.092;2022-08-04T10:45:17;100898.78;;;38.18;23.70
27304;BME280;14791;52.392;13.092;2022-08-04T10:47:55;100905.77;;;38.26;23.29
27304;BME280;14791;52.392;13.092;2022-08-04T10:50:23;100895.75;;;38.33;23.59
27304;BME280;14791;52.392;13.092;2022-08-04T10:53:19;100897.44;;;38.39;23.20
27304;BME280;14791;52.392;13.092;2022-08-04T10:55:41;100889.11;;;38.46;22.93
27304;BME280;14791;52.392;13.092;2022-08-04T10:58:08;100890.50;;;38.51;23.25
27304;BME280;14791;52.392;13.092;2022-08-04T11:00:38;100884.35;;;38.57;22.83
27304;BME280;14791;52.392;13.092;2022-08-04T11:03:25;100881.86;;;38.63;22.80
27304;BME280;14791;52.392;13.092;2022-08-04T11:05:57;100873.48;;;38.68;22.68
27304;BME280;14791;52.392;13.092;2022-08-04T11:08:41;100879.88;;;38.77;22.76
27304;BME280;14791;52.392;13.092;2022-08-04T11:11:29;100874.59;;;38.83;22.87
27304;BME280;14791;52.392;13.092;2022-08-04T11:14:10;100863.41;;;38.88;23.08
27304;BME280;14791;52.392;13.092;2022-08-04T11:16:54;100869.86;;;38.91;22.89
27304;BME280;14791;52.392;13.092;2022-08-04T11:19:41;100869.88;;;38.96;22.33
27304;BME280;14791;52.392;13.092;2022-08-04T11:22:22;100868.44;;;39.11;21.87
27304;BME280;14791;52.392;13.092;2022-08-04T11:24:54;100868.44;;;39.11;21.87
27304;BME280;14791;52.392;13.092;2022-08-04T11:27:27;100862.27;;;39.20;22.20
27304;BME280;14791;52.392;13.092;2022-08-04T11:30:06;100864.22;;;39.29;22.04
27304;BME280;14791;52.392;13.092;2022-08-04T11:32:42;100860.03;;;39.37;21.74
27304;BME280;14791;52.392;13.092;2022-08-04T11:35:31;100870.89;;;39.46;21.81
27304;BME280;14791;52.392;13.092;2022-08-04T11:38:45;100869.45;;;39.56;21.50
27304;BME280;14791;52.392;13.092;2022-08-04T11:40:39;100863.81;;;39.67;21.48
27304;BME280;14791;52.392;13.092;2022-08-04T11:43:12;100859.87;;;39.81;21.19
27304;BME280;14791;52.392;13.092;2022-08-04T11:45:52;100865.92;;;39.95;21.12
27304;BME280;14791;52.392;13.092;2022-08-04T11:48:26;100861.66;;;40.11;21.03
27304;BME280;14791;52.392;13.092;2022-08-04T11:50:54;100856.23;;;40.27;21.00
27304;BME280;14791;52.392;13.092;2022-08-04T11:53:25;100860.87;;;40.45;20.88
27304;BME280;14791;52.392;13.092;2022-08-04T11:55:57;100859.59;;;40.61;20.70
27304;BME280;14791;52.392;13.092;2022-08-04T11:58:27;100862.02;;;40.78;20.49
27304;BME280;14791;52.392;13.092;2022-08-04T12:01:14;100864.37;;;40.95;20.15
27304;BME280;14791;52.392;13.092;2022-08-04T12:04:02;100864.78;;;41.12;19.72
27304;BME280;14791;52.392;13.092;2022-08-04T12:07:04;100855.64;;;41.26;19.48
27304;BME280;14791;52.392;13.092;2022-08-04T12:09:46;100854.40;;;41.37;19.59
27304;BME280;14791;52.392;13.092;2022-08-04T12:12:29;100856.17;;;41.52;19.84
27304;BME280;14791;52.392;13.092;2022-08-04T12:15:18;100859.51;;;41.78;19.89
27304;BME280;14791;52.392;13.092;2022-08-04T12:17:56;100855.39;;;42.13;19.31
27304;BME280;14791;52.392;13.092;2022-08-04T12:20:21;100854.84;;;42.65;19.73
27304;BME280;14791;52.392;13.092;2022-08-04T12:22:52;100848.16;;;43.24;18.75
27304;BME280;14791;52.392;13.092;2022-08-04T12:25:29;100850.57;;;43.84;18.21
27304;BME280;14791;52.392;13.092;2022-08-04T12:28:11;100853.52;;;44.40;17.73
27304;BME280;14791;52.392;13.092;2022-08-04T12:30:41;100852.39;;;44.95;17.24
27304;BME280;14791;52.392;13.092;2022-08-04T12:33:14;100843.14;;;45.52;16.82
27304;BME280;14791;52.392;13.092;2022-08-04T12:35:46;100844.95;;;46.05;16.35
27304;BME280;14791;52.392;13.092;2022-08-04T12:38:15;100841.61;;;46.46;16.03
27304;BME280;14791;52.392;13.092;2022-08-04T12:43:42;100849.22;;;47.19;15.01
27304;BME280;14791;52.392;13.092;2022-08-04T12:46:21;100834.32;;;47.40;14.50
27304;BME280;14791;52.392;13.092;2022-08-04T12:48:47;100835.30;;;47.44;14.39
27304;BME280;14791;52.392;13.092;2022-08-04T12:51:17;100831.81;;;47.47;14.25
27304;BME280;14791;52.392;13.092;2022-08-04T12:53:48;100834.77;;;47.50;14.13
27304;BME280;14791;52.392;13.092;2022-08-04T12:56:23;100832.05;;;47.48;13.90
27304;BME280;14791;52.392;13.092;2022-08-04T12:58:52;100825.30;;;47.46;13.86
27304;BME280;14791;52.392;13.092;2022-08-04T13:01:22;100817.57;;;47.49;13.84
27304;BME280;14791;52.392;13.092;2022-08-04T13:03:57;100819.27;;;47.57;13.84
27304;BME280;14791;52.392;13.092;2022-08-04T13:06:29;100807.33;;;47.72;14.31
27304;BME280;14791;52.392;13.092;2022-08-04T13:09:16;100811.98;;;47.98;13.79
27304;BME280;14791;52.392;13.092;2022-08-04T13:12:03;100810.58;;;48.25;13.53
27304;BME280;14791;52.392;13.092;2022-08-04T13:14:35;100810.19;;;48.47;13.47
27304;BME280;14791;52.392;13.092;2022-08-04T13:17:05;100806.83;;;48.72;13.40
27304;BME280;14791;52.392;13.092;2022-08-04T13:19:35;100810.67;;;48.95;13.04
27304;BME280;14791;52.392;13.092;2022-08-04T13:22:05;100811.95;;;49.16;12.71
27304;BME280;14791;52.392;13.092;2022-08-04T13:24:36;100805.48;;;49.34;12.32
27304;BME280;14791;52.392;13.092;2022-08-04T13:27:08;100808.98;;;49.49;12.16
27304;BME280;14791;52.392;13.092;2022-08-04T13:29:46;100809.81;;;49.56;11.84
27304;BME280;14791;52.392;13.092;2022-08-04T13:32:19;100804.02;;;49.58;11.67
27304;BME280;14791;52.392;13.092;2022-08-04T13:34:51;100808.73;;;49.60;11.66
27304;BME280;14791;52.392;13.092;2022-08-04T13:37:29;100810.84;;;49.64;11.50
27304;BME280;14791;52.392;13.092;2022-08-04T13:39:58;100800.25;;;49.67;11.52
27304;BME280;14791;52.392;13.092;2022-08-04T13:42:28;100796.44;;;49.75;11.53
27304;BME280;14791;52.392;13.092;2022-08-04T13:44:59;100787.34;;;49.97;11.39
27304;BME280;14791;52.392;13.092;2022-08-04T13:47:34;100785.66;;;50.15;11.35
27304;BME280;14791;52.392;13.092;2022-08-04T13:50:17;100791.82;;;50.33;11.21
27304;BME280;14791;52.392;13.092;2022-08-04T13:52:46;100791.42;;;50.47;11.14
27304;BME280;14791;52.392;13.092;2022-08-04T13:55:33;100786.25;;;50.58;11.07
27304;BME280;14791;52.392;13.092;2022-08-04T13:58:06;100781.56;;;50.66;10.76
27304;BME280;14791;52.392;13.092;2022-08-04T14:00:48;100780.50;;;50.71;10.82
27304;BME280;14791;52.392;13.092;2022-08-04T14:03:32;100773.89;;;50.82;10.78
27304;BME280;14791;52.392;13.092;2022-08-04T14:06:20;100772.01;;;50.96;10.78
27304;BME280;14791;52.392;13.092;2022-08-04T14:08:51;100775.13;;;51.07;10.63
27304;BME280;14791;52.392;13.092;2022-08-04T14:11:36;100764.21;;;51.09;10.56
27304;BME280;14791;52.392;13.092;2022-08-04T14:13:53;100760.41;;;51.11;10.49
27304;BME280;14791;52.392;13.092;2022-08-04T14:16:22;100758.69;;;51.16;10.59
27304;BME280;14791;52.392;13.092;2022-08-04T14:19:00;100750.84;;;51.29;10.50
27304;BME280;14791;52.392;13.092;2022-08-04T14:21:34;100741.63;;;51.42;10.40
27304;BME280;14791;52.392;13.092;2022-08-04T14:24:01;100739.00;;;51.53;10.34
27304;BME280;14791;52.392;13.092;2022-08-04T14:26:34;100747.02;;;51.66;10.26
27304;BME280;14791;52.392;13.092;2022-08-04T14:29:12;100737.75;;;51.79;10.11
27304;BME280;14791;52.392;13.092;2022-08-04T14:31:41;100733.62;;;51.86;9.87
27304;BME280;14791;52.392;13.092;2022-08-04T14:34:23;100731.38;;;51.86;9.99
27304;BME280;14791;52.392;13.092;2022-08-04T14:36:43;100733.41;;;51.85;9.87
27304;BME280;14791;52.392;13.092;2022-08-04T14:39:12;100732.75;;;51.82;9.70
27304;BME280;14791;52.392;13.092;2022-08-04T14:41:49;100734.67;;;51.68;9.51
27304;BME280;14791;52.392;13.092;2022-08-04T14:44:18;100733.81;;;51.39;9.58
27304;BME280;14791;52.392;13.092;2022-08-04T14:46:53;100730.09;;;51.09;9.74
27304;BME280;14791;52.392;13.092;2022-08-04T14:49:22;100728.30;;;50.95;9.84
27304;BME280;14791;52.392;13.092;2022-08-04T14:51:56;100726.39;;;50.83;9.87
27304;BME280;14791;52.392;13.092;2022-08-04T14:54:30;100719.12;;;50.76;9.99
27304;BME280;14791;52.392;13.092;2022-08-04T14:57:07;100724.44;;;50.77;10.02
27304;BME280;14791;52.392;13.092;2022-08-04T14:59:43;100722.88;;;50.80;10.08
27304;BME280;14791;52.392;13.092;2022-08-04T15:02:13;100719.58;;;50.78;10.01
27304;BME280;14791;52.392;13.092;2022-08-04T15:04:44;100717.38;;;50.71;9.91
27304;BME280;14791;52.392;13.092;2022-08-04T15:07:14;100714.86;;;50.60;9.95
27304;BME280;14791;52.392;13.092;2022-08-04T15:09:44;100709.95;;;50.51;10.03
27304;BME280;14791;52.392;13.092;2022-08-04T15:12:13;100710.95;;;50.42;10.04
27304;BME280;14791;52.392;13.092;2022-08-04T15:14:42;100713.62;;;50.29;10.01
27304;BME280;14791;52.392;13.092;2022-08-04T15:17:12;100709.02;;;50.09;10.18
27304;BME280;14791;52.392;13.092;2022-08-04T15:19:42;100706.64;;;49.83;10.17
27304;BME280;14791;52.392;13.092;2022-08-04T15:22:11;100698.95;;;49.49;10.28
27304;BME280;14791;52.392;13.092;2022-08-04T15:24:40;100700.59;;;49.09;10.41
27304;BME280;14791;52.392;13.092;2022-08-04T15:27:09;100699.17;;;48.66;10.62
27304;BME280;14791;52.392;13.092;2022-08-04T15:29:41;100698.16;;;48.31;10.87
27304;BME280;14791;52.392;13.092;2022-08-04T15:32:13;100687.92;;;48.06;11.02
27304;BME280;14791;52.392;13.092;2022-08-04T15:34:48;100680.26;;;47.94;11.22
27304;BME280;14791;52.392;13.092;2022-08-04T15:40:15;100684.36;;;47.90;11.24
27304;BME280;14791;52.392;13.092;2022-08-04T15:43:10;100675.80;;;47.78;11.22
27304;BME280;14791;52.392;13.092;2022-08-04T15:45:48;100679.03;;;47.62;11.25
27304;BME280;14791;52.392;13.092;2022-08-04T15:54:20;100671.88;;;46.78;11.60
27304;BME280;14791;52.392;13.092;2022-08-04T15:58:54;100666.60;;;46.20;11.91
27304;BME280;14791;52.392;13.092;2022-08-04T16:01:24;100669.23;;;45.84;12.05
27304;BME280;14791;52.392;13.092;2022-08-04T16:03:54;100671.41;;;45.53;12.29
27304;BME280;14791;52.392;13.092;2022-08-04T16:09:00;100667.75;;;44.89;12.62
27304;BME280;14791;52.392;13.092;2022-08-04T16:16:44;100659.20;;;44.00;13.15
27304;BME280;14791;52.392;13.092;2022-08-04T16:21:55;100654.05;;;43.57;13.43
27304;BME280;14791;52.392;13.092;2022-08-04T16:24:29;100650.34;;;43.48;13.62
27304;BME280;14791;52.392;13.092;2022-08-04T16:27:07;100656.34;;;43.55;13.74
27304;BME280;14791;52.392;13.092;2022-08-04T16:29:36;100649.44;;;43.75;13.87